This is the latest recevied weather packets stored in our database for station/object HS5AU-13. If no packets are shown the sender has not sent any weather packets the latest 10 day(s).
| Time | Temp. | Humidity | Pressure | Rain* | Wind** | Luminosity | Snow |
|---|---|---|---|---|---|---|---|
| 1787832898 | 24.44° C | 99% | 1000.1 hPa | 0 mm | - | 2 W/m² | - |
| 1787832298 | 24.44° C | 99% | 1000.3 hPa | 0 mm | - | 2 W/m² | - |
| 1787831698 | 24.44° C | 99% | 1000.2 hPa | 0 mm | - | 2 W/m² | - |
| 1787831098 | 24.44° C | 99% | 1000 hPa | 0 mm | - | 2 W/m² | - |
| 1787830498 | 24.44° C | 99% | 1000.2 hPa | 0 mm | - | 2 W/m² | - |
| 1787829898 | 24.44° C | 99% | 1000.1 hPa | 0 mm | - | 3 W/m² | - |
| 1787829298 | 24.44° C | 99% | 999.8 hPa | 0 mm | - | 7 W/m² | - |
| 1787828698 | 24.44° C | 99% | 999.8 hPa | 0 mm | - | 29 W/m² | - |
| 1787828098 | 24.44° C | 99% | 999.6 hPa | 0 mm | - | 59 W/m² | - |
| 1787827498 | 25° C | 99% | 999.3 hPa | 0 mm | - | 52 W/m² | - |
| 1787826898 | 25° C | 99% | 998.8 hPa | 0 mm | - | 98 W/m² | - |
| 1787826298 | 25.56° C | 99% | 998.3 hPa | 0 mm | - | 117 W/m² | - |
| 1787825698 | 25.56° C | 98% | 997.8 hPa | 0 mm | - | 47 W/m² | - |
| 1787825098 | 25.56° C | 97% | 997.8 hPa | 0 mm | - | 138 W/m² | - |
| 1787824498 | 25° C | 99% | 998 hPa | 0 mm | - | 115 W/m² | - |
| 1787823898 | 25.56° C | 98% | 997.6 hPa | 0 mm | - | 115 W/m² | - |
| 1787823298 | 25.56° C | 97% | 997.4 hPa | 0 mm | - | 139 W/m² | - |
| 1787822698 | 26.11° C | 94% | 997.1 hPa | 0 mm | - | 192 W/m² | - |
| 1787822098 | 26.11° C | 94% | 997 hPa | 0 mm | - | 149 W/m² | - |
| 1787821498 | 26.11° C | 95% | 997.2 hPa | 0 mm | - | 265 W/m² | - |
| 1787820898 | 26.11° C | 95% | 997 hPa | 0 mm | - | 177 W/m² | - |
| 1787820298 | 26.11° C | 92% | 996.7 hPa | 0 mm | - | 196 W/m² | - |
| 1787819698 | 26.67° C | 92% | 996.8 hPa | 0 mm | - | 197 W/m² | - |
| 1787819098 | 27.78° C | 86% | 997.2 hPa | 0 mm | - | 277 W/m² | - |
| 1787818498 | 27.78° C | 83% | 997.4 hPa | 0 mm | - | 703 W/m² | - |
* Rain latest hour (hover to see other rain measurements)
** Current wind speed in m/s (hover to see current wind gust speed)